createdAt,value
2023-04-21T12:53:35.159Z,185.62
2023-04-21T12:54:35.194Z,208.12
2023-04-21T12:55:35.101Z,236.25
2023-04-21T12:56:35.090Z,202.50
2023-04-21T12:57:35.088Z,219.38
2023-04-21T12:58:35.363Z,180.00
2023-04-21T12:59:35.059Z,168.75
2023-04-21T13:00:35.068Z,264.38
2023-04-21T13:01:35.097Z,168.75
2023-04-21T13:02:35.170Z,191.25
2023-04-21T13:03:35.313Z,208.12
2023-04-21T13:04:35.258Z,191.25
2023-04-21T13:05:35.003Z,202.50
2023-04-21T13:06:34.989Z,208.12
2023-04-21T13:07:34.967Z,202.50
2023-04-21T13:08:34.984Z,208.12
2023-04-21T13:09:34.978Z,208.12
2023-04-21T13:10:34.934Z,202.50
2023-04-21T13:11:34.933Z,208.12
2023-04-21T13:12:34.910Z,196.88
2023-04-21T13:13:34.907Z,253.12
2023-04-21T13:14:34.960Z,191.25
2023-04-21T13:15:34.901Z,202.50
2023-04-21T13:16:34.929Z,309.38
2023-04-21T13:17:34.921Z,315.00
2023-04-21T13:18:34.893Z,320.62
2023-04-21T13:19:35.211Z,331.88
2023-04-21T13:20:34.836Z,331.88
2023-04-21T13:21:34.850Z,326.25
2023-04-21T13:22:34.799Z,247.50
2023-04-21T13:23:34.787Z,315.00
2023-04-21T13:24:34.803Z,331.88
2023-04-21T13:25:34.789Z,236.25
2023-04-21T13:26:34.762Z,236.25
2023-04-21T13:27:34.768Z,219.38
2023-04-21T13:28:34.732Z,213.75
2023-04-21T13:29:34.754Z,213.75
2023-04-21T13:30:34.709Z,208.12
2023-04-21T13:31:34.949Z,213.75
2023-04-21T13:32:34.742Z,213.75
2023-04-21T13:33:34.682Z,219.38
2023-04-21T13:34:34.972Z,230.62
2023-04-21T13:35:34.647Z,230.62
2023-04-21T13:36:34.647Z,331.88
2023-04-21T13:37:34.640Z,337.50
2023-04-21T13:38:34.643Z,247.50
2023-04-21T13:39:35.040Z,236.25
2023-04-21T13:40:34.624Z,326.25
2023-04-21T13:41:34.612Z,225.00
2023-04-21T13:42:34.577Z,225.00
2023-04-21T13:43:34.558Z,337.50
2023-04-21T13:44:34.566Z,331.88
2023-04-21T13:45:34.586Z,230.62
2023-04-21T13:46:34.752Z,225.00
2023-04-21T13:47:34.585Z,309.38
2023-04-21T13:48:34.527Z,309.38
2023-04-21T13:49:34.854Z,309.38
2023-04-21T13:50:34.479Z,309.38
2023-04-21T13:51:34.476Z,281.25
2023-04-21T13:52:34.502Z,236.25
2023-04-21T13:53:34.455Z,253.12
2023-04-21T13:54:34.793Z,219.38
2023-04-21T13:55:34.449Z,208.12
2023-04-21T13:56:34.427Z,213.75
2023-04-21T13:57:34.431Z,213.75
2023-04-21T13:58:34.442Z,208.12
2023-04-21T13:59:34.701Z,202.50
2023-04-21T14:00:34.408Z,185.62
2023-04-21T14:01:34.419Z,174.38
2023-04-21T14:02:34.726Z,247.50
2023-04-21T14:03:34.447Z,253.12
2023-04-21T14:04:34.559Z,253.12
2023-04-21T14:05:34.564Z,258.75
2023-04-21T14:06:34.301Z,264.38
2023-04-21T14:07:34.289Z,281.25
2023-04-21T14:08:34.278Z,202.50
2023-04-21T14:09:34.711Z,303.75
2023-04-21T14:10:34.265Z,326.25
2023-04-21T14:11:34.264Z,326.25
2023-04-21T14:12:34.276Z,320.62
2023-04-21T14:13:41.839Z,309.38
2023-04-21T14:14:38.734Z,241.88
2023-04-21T14:15:34.220Z,270.00
2023-04-21T14:16:34.245Z,185.62
2023-04-21T14:17:34.202Z,264.38
2023-04-21T14:18:34.165Z,270.00
2023-04-21T14:19:34.498Z,270.00
2023-04-21T14:20:34.166Z,270.00
2023-04-21T14:21:34.136Z,275.62
2023-04-21T14:22:34.120Z,275.62
2023-04-21T14:23:34.122Z,270.00
2023-04-21T14:24:34.124Z,264.38
2023-04-21T14:25:34.116Z,258.75
2023-04-21T14:26:34.144Z,180.00
2023-04-21T14:27:34.091Z,185.62
2023-04-21T14:28:34.060Z,163.12
2023-04-21T14:29:34.522Z,163.12
2023-04-21T14:30:34.037Z,157.50
2023-04-21T14:31:34.066Z,225.00
2023-04-21T14:32:34.201Z,151.88
2023-04-21T14:33:34.028Z,151.88
2023-04-21T14:34:34.027Z,157.50
2023-04-21T14:35:34.009Z,157.50
2023-04-21T14:36:33.994Z,180.00
2023-04-21T14:37:33.962Z,185.62
2023-04-21T14:38:33.986Z,213.75
2023-04-21T14:39:34.331Z,196.88
2023-04-21T14:40:33.955Z,151.88
2023-04-21T14:41:33.917Z,135.00
2023-04-21T14:42:33.954Z,129.38
2023-04-21T14:43:33.958Z,135.00
2023-04-21T14:44:33.896Z,140.62
2023-04-21T14:45:33.936Z,180.00
2023-04-21T14:46:33.885Z,202.50
2023-04-21T14:47:33.908Z,185.62
2023-04-21T14:48:33.836Z,135.00
2023-04-21T14:49:34.228Z,135.00
2023-04-21T14:50:33.811Z,135.00
2023-04-21T14:51:33.853Z,135.00
2023-04-21T14:52:33.794Z,185.62
2023-04-21T14:53:33.796Z,196.88
2023-04-21T14:54:33.791Z,202.50
2023-04-21T14:55:33.766Z,202.50
2023-04-21T14:56:33.743Z,208.12
2023-04-21T14:57:33.749Z,202.50
2023-04-21T14:58:33.719Z,208.12
2023-04-21T14:59:33.940Z,208.12
2023-04-21T15:00:33.697Z,208.12
2023-04-21T15:01:33.832Z,208.12
2023-04-21T15:02:33.834Z,208.12
2023-04-21T15:03:33.797Z,202.50
2023-04-21T15:04:33.790Z,202.50
2023-04-21T15:05:33.756Z,196.88
2023-04-21T15:06:33.638Z,196.88
2023-04-21T15:07:33.654Z,191.25
2023-04-21T15:08:33.821Z,191.25
2023-04-21T15:09:33.857Z,191.25
2023-04-21T15:10:33.608Z,191.25
2023-04-21T15:11:33.574Z,191.25
2023-04-21T15:12:35.903Z,191.25
2023-04-21T15:13:33.577Z,191.25
2023-04-21T15:14:33.551Z,191.25
2023-04-21T15:15:33.603Z,185.62
2023-04-21T15:16:33.559Z,180.00
2023-04-21T15:17:33.540Z,180.00
2023-04-21T15:18:33.504Z,180.00
2023-04-21T15:19:33.635Z,180.00
2023-04-21T15:20:44.440Z,180.00
2023-04-21T15:21:34.463Z,174.38
2023-04-21T15:22:33.453Z,174.38
2023-04-21T15:23:33.446Z,174.38
2023-04-21T15:24:33.462Z,174.38
2023-04-21T15:25:33.421Z,168.75
2023-04-21T15:26:33.409Z,168.75
2023-04-21T15:27:33.397Z,168.75
2023-04-21T15:28:33.647Z,168.75
2023-04-21T15:29:33.762Z,168.75
2023-04-21T15:30:33.359Z,168.75
2023-04-21T15:31:33.442Z,163.12
2023-04-21T15:32:33.362Z,163.12
2023-04-21T15:33:33.353Z,163.12
2023-04-21T15:34:33.335Z,163.12
2023-04-21T15:35:33.304Z,157.50
2023-04-21T15:36:33.495Z,151.88
2023-04-21T15:37:33.337Z,151.88
2023-04-21T15:38:33.294Z,151.88
2023-04-21T15:39:33.413Z,151.88
2023-04-21T15:40:33.302Z,157.50
2023-04-21T15:41:33.260Z,157.50
2023-04-21T15:42:33.230Z,157.50
2023-04-21T15:43:33.226Z,157.50
2023-04-21T15:44:33.528Z,157.50
2023-04-21T15:45:33.239Z,157.50
2023-04-21T15:46:33.290Z,151.88
2023-04-21T15:47:33.254Z,157.50
2023-04-21T15:48:33.238Z,151.88
2023-04-21T15:49:33.242Z,151.88
2023-04-21T15:50:33.151Z,151.88
2023-04-21T15:51:33.131Z,151.88
2023-04-21T15:52:33.116Z,151.88
2023-04-21T15:53:33.107Z,146.25
2023-04-21T15:54:33.141Z,146.25
2023-04-21T15:55:33.090Z,146.25
2023-04-21T15:56:33.065Z,140.62
2023-04-21T15:57:33.057Z,140.62
2023-04-21T15:58:33.054Z,140.62
2023-04-21T15:59:33.061Z,140.62
2023-04-21T16:00:33.075Z,140.62
2023-04-21T16:01:33.123Z,140.62
2023-04-21T16:02:33.263Z,140.62
2023-04-21T16:03:33.185Z,135.00
2023-04-21T16:04:33.318Z,140.62
2023-04-21T16:05:33.231Z,135.00
2023-04-21T16:06:33.031Z,135.00
2023-04-21T16:07:33.046Z,135.00
2023-04-21T16:08:33.144Z,135.00
2023-04-21T16:09:33.000Z,135.00
2023-04-21T16:10:32.938Z,135.00
2023-04-21T16:11:32.928Z,135.00
2023-04-21T16:12:32.941Z,135.00
2023-04-21T16:13:32.891Z,135.00
2023-04-21T16:14:46.506Z,135.00
2023-04-21T16:15:33.872Z,135.00
2023-04-21T16:16:32.922Z,129.38
2023-04-21T16:17:32.958Z,129.38
2023-04-21T16:18:32.964Z,129.38
2023-04-21T16:19:32.889Z,129.38
2023-04-21T16:20:32.823Z,129.38
2023-04-21T16:21:32.912Z,123.75
2023-04-21T16:22:32.890Z,129.38
2023-04-21T16:23:32.766Z,123.75
2023-04-21T16:24:32.877Z,123.75
2023-04-21T16:25:32.944Z,123.75
2023-04-21T16:26:32.768Z,123.75
2023-04-21T16:27:32.777Z,123.75
2023-04-21T16:28:32.707Z,118.12
2023-04-21T16:29:32.779Z,118.12
2023-04-21T16:30:32.739Z,118.12
2023-04-21T16:31:32.791Z,118.12
2023-04-21T16:32:32.793Z,118.12
2023-04-21T16:33:32.703Z,118.12
2023-04-21T16:34:32.702Z,118.12
2023-04-21T16:35:32.699Z,118.12
2023-04-21T16:36:32.668Z,118.12
2023-04-21T16:37:32.626Z,112.50
2023-04-21T16:38:32.615Z,112.50
2023-04-21T16:39:32.617Z,112.50
2023-04-21T16:40:32.611Z,112.50
2023-04-21T16:41:32.600Z,112.50
2023-04-21T16:42:32.564Z,112.50
2023-04-21T16:43:32.541Z,112.50
2023-04-21T16:44:32.585Z,112.50
2023-04-21T16:45:32.516Z,112.50
2023-04-21T16:46:32.664Z,106.88
2023-04-21T16:47:32.607Z,106.88
2023-04-21T16:48:32.768Z,106.88
2023-04-21T16:49:32.567Z,106.88
2023-04-21T16:50:32.519Z,106.88
2023-04-21T16:51:32.454Z,106.88
2023-04-21T16:52:32.430Z,101.25
2023-04-21T16:53:32.458Z,101.25
2023-04-21T16:54:32.416Z,101.25
2023-04-21T16:55:32.404Z,101.25
2023-04-21T16:56:32.396Z,101.25
2023-04-21T16:57:32.384Z,95.62
2023-04-21T16:58:32.397Z,95.62
2023-04-21T16:59:33.056Z,95.62
2023-04-21T17:00:32.402Z,95.62
2023-04-21T17:01:32.399Z,95.62
2023-04-21T17:02:32.519Z,95.62
2023-04-21T17:03:32.533Z,90.00
2023-04-21T17:04:32.323Z,90.00
2023-04-21T17:05:32.318Z,90.00
2023-04-21T17:06:32.277Z,90.00
2023-04-21T17:07:32.390Z,90.00
2023-04-21T17:08:32.265Z,84.38
2023-04-21T17:09:32.299Z,84.38
2023-04-21T17:10:32.282Z,84.38
2023-04-21T17:11:32.344Z,84.38
2023-04-21T17:12:32.213Z,84.38
2023-04-21T17:13:32.205Z,84.38
2023-04-21T17:14:32.230Z,84.38
2023-04-21T17:15:32.174Z,90.00
2023-04-21T17:16:32.236Z,112.50
2023-04-21T17:17:32.184Z,118.12
2023-04-21T17:18:32.155Z,101.25
2023-04-21T17:19:32.131Z,84.38
2023-04-21T17:20:32.142Z,73.12
2023-04-21T17:21:32.106Z,73.12
2023-04-21T17:22:32.108Z,67.50
2023-04-21T17:23:32.108Z,67.50
2023-04-21T17:24:44.818Z,67.50
2023-04-21T17:25:33.085Z,67.50
2023-04-21T17:26:32.062Z,61.88
2023-04-21T17:27:32.039Z,67.50
2023-04-21T17:28:32.047Z,61.88
2023-04-21T17:29:32.018Z,61.88
2023-04-21T17:30:32.007Z,61.88
2023-04-21T17:31:32.028Z,61.88
2023-04-21T17:32:33.749Z,61.88
2023-04-21T17:33:32.047Z,61.88
2023-04-21T17:34:31.959Z,56.25
2023-04-21T17:35:31.951Z,61.88
2023-04-21T17:36:31.945Z,56.25
2023-04-21T17:37:31.928Z,56.25
2023-04-21T17:38:31.959Z,56.25
2023-04-21T17:39:31.904Z,56.25
2023-04-21T17:40:31.885Z,50.62
2023-04-21T17:41:31.901Z,56.25
2023-04-21T17:42:31.869Z,50.62
2023-04-21T17:43:31.873Z,50.62
2023-04-21T17:44:31.862Z,50.62
2023-04-21T17:45:31.840Z,50.62
2023-04-21T17:46:31.890Z,45.00
2023-04-21T17:47:31.920Z,45.00
2023-04-21T17:48:31.836Z,45.00
2023-04-21T17:49:31.805Z,45.00
2023-04-21T17:50:31.925Z,39.38
2023-04-21T17:51:31.767Z,39.38
2023-04-21T17:52:31.753Z,39.38
2023-04-21T17:53:31.763Z,39.38
2023-04-21T17:54:31.736Z,33.75
2023-04-21T17:55:31.727Z,33.75
2023-04-21T17:56:31.718Z,33.75
2023-04-21T17:57:31.724Z,33.75
2023-04-21T17:58:31.703Z,33.75
2023-04-21T17:59:31.696Z,28.12
2023-04-21T18:00:31.665Z,28.12
2023-04-21T18:01:31.697Z,28.12
2023-04-21T18:02:31.757Z,28.12
2023-04-21T18:03:31.774Z,28.12
2023-04-21T18:04:31.744Z,22.50
2023-04-21T18:05:31.613Z,22.50
2023-04-21T18:06:31.618Z,16.88
2023-04-21T18:07:31.610Z,16.88
2023-04-21T18:08:31.619Z,16.88
2023-04-21T18:09:31.656Z,16.88
2023-04-21T18:10:31.566Z,16.88
2023-04-21T18:11:31.562Z,11.25
2023-04-21T18:12:31.545Z,11.25
2023-04-21T18:13:31.560Z,11.25
2023-04-21T18:14:31.532Z,11.25
2023-04-21T18:15:31.503Z,11.25
2023-04-21T18:16:31.519Z,11.25
2023-04-21T18:17:31.574Z,11.25
2023-04-21T18:18:32.487Z,5.62
2023-04-21T18:19:31.486Z,5.62
2023-04-21T18:20:31.443Z,5.62
2023-04-21T18:21:31.975Z,5.62
2023-04-21T18:22:31.419Z,5.62
2023-04-21T18:23:31.427Z,5.62
2023-04-21T18:24:31.604Z,5.62
2023-04-21T18:25:42.085Z,5.62
2023-04-21T18:26:32.377Z,5.62
2023-04-21T18:27:32.491Z,0.00
2023-04-21T18:28:31.468Z,0.00
2023-04-21T18:29:31.368Z,0.00
2023-04-21T18:30:31.337Z,0.00
2023-04-21T18:31:31.368Z,0.00
2023-04-21T18:32:31.340Z,0.00
2023-04-21T18:33:31.692Z,0.00
2023-04-21T18:34:31.348Z,0.00
2023-04-21T18:35:31.270Z,0.00
2023-04-21T18:36:33.449Z,0.00
2023-04-21T18:37:31.294Z,0.00
2023-04-21T18:38:31.246Z,0.00
2023-04-21T18:39:31.440Z,0.00
2023-04-21T18:40:31.228Z,0.00
2023-04-21T18:41:31.203Z,0.00
2023-04-21T18:42:31.211Z,0.00
2023-04-21T18:43:31.263Z,0.00
2023-04-21T18:44:31.188Z,0.00
2023-04-21T18:45:31.226Z,0.00
2023-04-21T18:46:31.169Z,0.00
2023-04-21T18:47:31.263Z,0.00
2023-04-21T18:48:31.178Z,0.00
2023-04-21T18:49:31.110Z,0.00
2023-04-21T18:50:31.102Z,0.00
2023-04-21T18:51:31.089Z,0.00
2023-04-21T18:52:31.080Z,0.00
2023-04-21T18:53:31.086Z,0.00
2023-04-21T18:54:31.055Z,0.00
2023-04-21T18:55:31.053Z,0.00
2023-04-21T18:56:31.032Z,0.00
2023-04-21T18:57:31.033Z,0.00
2023-04-21T18:58:31.033Z,0.00
2023-04-21T18:59:30.998Z,0.00
2023-04-21T19:00:30.986Z,0.00
2023-04-21T19:01:31.127Z,0.00
2023-04-21T19:02:31.210Z,0.00
2023-04-21T19:03:31.254Z,0.00
2023-04-21T19:04:30.970Z,0.00
2023-04-21T19:05:31.794Z,0.00
2023-04-21T19:06:30.921Z,0.00
2023-04-21T19:07:30.915Z,0.00
2023-04-21T19:08:42.140Z,0.00
2023-04-21T19:09:31.884Z,0.00
2023-04-21T19:10:30.875Z,0.00
2023-04-21T19:11:30.863Z,0.00
2023-04-21T19:12:30.864Z,0.00
2023-04-21T19:13:30.857Z,0.00
2023-04-21T19:14:39.563Z,0.00
2023-04-21T19:15:31.900Z,0.00
2023-04-21T19:16:30.846Z,0.00
2023-04-21T19:17:30.871Z,0.00
2023-04-21T19:18:30.800Z,0.00
2023-04-21T19:19:30.779Z,0.00
2023-04-21T19:20:30.766Z,0.00
2023-04-21T19:21:30.750Z,0.00
2023-04-21T19:22:30.743Z,0.00
2023-04-21T19:23:30.756Z,0.00
2023-04-21T19:24:30.729Z,0.00
2023-04-21T19:25:30.707Z,0.00
2023-04-21T19:26:30.700Z,0.00
2023-04-21T19:27:30.682Z,0.00
2023-04-21T19:28:30.702Z,0.00
2023-04-21T19:29:30.663Z,0.00
2023-04-21T19:30:30.672Z,0.00
2023-04-21T19:31:30.738Z,0.00
2023-04-21T19:32:30.851Z,0.00
2023-04-21T19:33:30.666Z,0.00
2023-04-21T19:34:30.622Z,0.00
2023-04-21T19:35:30.616Z,0.00
2023-04-21T19:36:30.581Z,0.00
2023-04-21T19:37:32.978Z,0.00
2023-04-21T19:38:30.570Z,0.00
2023-04-21T19:39:30.557Z,0.00
2023-04-21T19:40:30.541Z,0.00
2023-04-21T19:41:30.531Z,0.00
2023-04-21T19:42:30.538Z,0.00
2023-04-21T19:43:30.524Z,0.00
2023-04-21T19:44:30.497Z,0.00
2023-04-21T19:45:30.491Z,0.00
2023-04-21T19:46:30.537Z,0.00
2023-04-21T19:47:30.454Z,0.00
2023-04-21T19:48:31.330Z,0.00
2023-04-21T19:49:30.450Z,0.00
2023-04-21T19:50:30.422Z,0.00
2023-04-21T19:51:30.418Z,0.00
2023-04-21T19:52:30.430Z,0.00
2023-04-21T19:53:30.403Z,0.00
2023-04-21T19:54:30.383Z,0.00
2023-04-21T19:55:30.367Z,0.00
2023-04-21T19:56:30.431Z,0.00
2023-04-21T19:57:30.337Z,0.00
2023-04-21T19:58:40.371Z,0.00
2023-04-21T19:59:31.329Z,0.00
2023-04-21T20:00:30.311Z,0.00
2023-04-21T20:01:30.296Z,0.00
2023-04-21T20:02:30.568Z,0.00
2023-04-21T20:03:30.600Z,0.00
2023-04-21T20:04:30.396Z,0.00
2023-04-21T20:05:30.270Z,0.00
2023-04-21T20:06:30.244Z,0.00
2023-04-21T20:07:30.236Z,0.00
2023-04-21T20:08:30.224Z,0.00
2023-04-21T20:09:30.222Z,0.00
2023-04-21T20:10:30.201Z,0.00
2023-04-21T20:11:30.184Z,0.00
2023-04-21T20:12:30.219Z,0.00
2023-04-21T20:13:30.169Z,0.00
2023-04-21T20:14:30.185Z,0.00
2023-04-21T20:15:30.140Z,0.00
2023-04-21T20:16:30.368Z,0.00
2023-04-21T20:17:30.141Z,0.00
2023-04-21T20:18:30.110Z,0.00
2023-04-21T20:19:30.114Z,0.00
2023-04-21T20:20:30.123Z,0.00
2023-04-21T20:21:30.091Z,0.00
2023-04-21T20:22:30.064Z,0.00
2023-04-21T20:23:30.049Z,0.00
2023-04-21T20:24:30.058Z,0.00
2023-04-21T20:25:30.020Z,0.00
2023-04-21T20:26:30.014Z,0.00
2023-04-21T20:27:30.014Z,0.00
2023-04-21T20:28:30.027Z,0.00
2023-04-21T20:29:29.994Z,0.00
2023-04-21T20:30:29.977Z,0.00
2023-04-21T20:31:30.002Z,0.00
2023-04-21T20:32:30.069Z,0.00
2023-04-21T20:33:29.935Z,0.00
2023-04-21T20:34:29.938Z,0.00
2023-04-21T20:35:29.910Z,0.00
2023-04-21T20:36:29.900Z,0.00
2023-04-21T20:37:30.028Z,0.00
2023-04-21T20:38:29.875Z,0.00
2023-04-21T20:39:29.891Z,0.00
2023-04-21T20:40:29.853Z,0.00
2023-04-21T20:41:29.842Z,0.00
2023-04-21T20:42:29.831Z,0.00
2023-04-21T20:43:29.837Z,0.00
2023-04-21T20:44:29.825Z,0.00
2023-04-21T20:45:29.802Z,0.00
2023-04-21T20:46:29.849Z,0.00
2023-04-21T20:47:29.777Z,0.00
2023-04-21T20:48:29.794Z,0.00
2023-04-21T20:49:29.806Z,0.00
2023-04-21T20:50:29.768Z,0.00
2023-04-21T20:51:29.749Z,0.00
2023-04-21T20:52:29.719Z,0.00
2023-04-21T20:53:29.720Z,0.00
2023-04-21T20:54:30.022Z,0.00
2023-04-21T20:55:29.694Z,0.00
2023-04-21T20:56:29.676Z,0.00
2023-04-21T20:57:29.667Z,0.00
2023-04-21T20:58:29.646Z,0.00
2023-04-21T20:59:29.700Z,0.00
2023-04-21T21:00:29.694Z,0.00
2023-04-21T21:01:30.896Z,0.00
2023-04-21T21:02:29.874Z,0.00
2023-04-21T21:03:29.762Z,0.00
2023-04-21T21:04:29.680Z,0.00
2023-04-21T21:05:29.567Z,0.00
2023-04-21T21:06:29.561Z,0.00
2023-04-21T21:07:29.569Z,0.00
2023-04-21T21:08:29.559Z,0.00
2023-04-21T21:09:29.561Z,0.00
2023-04-21T21:10:29.518Z,0.00
2023-04-21T21:11:29.502Z,0.00
2023-04-21T21:12:29.493Z,0.00
2023-04-21T21:13:29.480Z,0.00
2023-04-21T21:14:29.489Z,0.00
2023-04-21T21:15:29.455Z,0.00
2023-04-21T21:16:29.536Z,0.00
2023-04-21T21:17:29.574Z,0.00
2023-04-21T21:18:29.425Z,0.00
2023-04-21T21:19:29.433Z,0.00
2023-04-21T21:20:29.398Z,0.00
2023-04-21T21:21:29.393Z,0.00
2023-04-21T21:22:29.373Z,0.00
2023-04-21T21:23:29.361Z,0.00
2023-04-21T21:24:29.400Z,0.00
2023-04-21T21:25:29.356Z,0.00
2023-04-21T21:26:29.394Z,0.00
2023-04-21T21:27:29.342Z,0.00
2023-04-21T21:28:29.307Z,0.00
2023-04-21T21:29:29.317Z,0.00
2023-04-21T21:30:29.294Z,0.00
2023-04-21T21:31:29.313Z,0.00
2023-04-21T21:32:29.325Z,0.00
2023-04-21T21:33:29.244Z,0.00
2023-04-21T21:34:29.265Z,0.00
2023-04-21T21:35:29.234Z,0.00
2023-04-21T21:36:29.220Z,0.00
2023-04-21T21:37:29.222Z,0.00
2023-04-21T21:38:29.212Z,0.00
2023-04-21T21:39:29.194Z,0.00
2023-04-21T21:40:29.172Z,0.00
2023-04-21T21:41:29.182Z,0.00
2023-04-21T21:42:29.161Z,0.00
2023-04-21T21:43:29.138Z,0.00
2023-04-21T21:44:29.145Z,0.00
2023-04-21T21:45:29.118Z,0.00
2023-04-21T21:46:29.129Z,0.00
2023-04-21T21:47:29.110Z,0.00
2023-04-21T21:48:29.091Z,0.00
2023-04-21T21:49:29.142Z,0.00
2023-04-21T21:50:29.064Z,0.00
2023-04-21T21:51:29.061Z,0.00
2023-04-21T21:52:29.045Z,0.00
2023-04-21T21:53:29.032Z,0.00
2023-04-21T21:54:29.033Z,0.00
2023-04-21T21:55:29.025Z,0.00
2023-04-21T21:56:28.993Z,0.00
2023-04-21T21:57:29.006Z,0.00
2023-04-21T21:58:28.968Z,0.00
2023-04-21T21:59:28.979Z,0.00
2023-04-21T22:00:28.947Z,0.00
2023-04-21T22:01:29.033Z,0.00
2023-04-21T22:02:29.027Z,0.00
2023-04-21T22:03:29.138Z,0.00
2023-04-21T22:04:28.945Z,0.00
2023-04-21T22:05:28.890Z,0.00
2023-04-21T22:06:28.910Z,0.00
2023-04-21T22:07:28.865Z,0.00
2023-04-21T22:08:28.867Z,0.00
2023-04-21T22:09:28.918Z,0.00
2023-04-21T22:10:28.842Z,0.00
2023-04-21T22:11:28.826Z,0.00
2023-04-21T22:12:28.822Z,0.00
2023-04-21T22:13:28.812Z,0.00
2023-04-21T22:14:28.807Z,0.00
2023-04-21T22:15:28.783Z,0.00
2023-04-21T22:16:28.826Z,0.00
2023-04-21T22:17:28.769Z,0.00
2023-04-21T22:18:28.749Z,0.00
2023-04-21T22:19:28.778Z,0.00
2023-04-21T22:20:28.723Z,0.00
2023-04-21T22:21:28.716Z,0.00
2023-04-21T22:22:28.696Z,0.00
2023-04-21T22:23:28.695Z,0.00
2023-04-21T22:24:28.677Z,0.00
2023-04-21T22:25:28.681Z,0.00
2023-04-21T22:26:28.655Z,0.00
2023-04-21T22:27:28.646Z,0.00
2023-04-21T22:28:28.628Z,0.00
2023-04-21T22:29:28.632Z,0.00
2023-04-21T22:30:28.635Z,0.00
2023-04-21T22:31:28.621Z,0.00
2023-04-21T22:32:28.602Z,0.00
2023-04-21T22:33:28.570Z,0.00
2023-04-21T22:34:28.610Z,0.00
2023-04-21T22:35:28.576Z,0.00
2023-04-21T22:36:28.545Z,0.00
2023-04-21T22:37:28.532Z,0.00
2023-04-21T22:38:28.522Z,0.00
2023-04-21T22:39:28.501Z,0.00
2023-04-21T22:40:28.513Z,0.00
2023-04-21T22:41:28.492Z,0.00
2023-04-21T22:42:28.496Z,0.00
2023-04-21T22:43:28.474Z,0.00
2023-04-21T22:44:28.449Z,0.00
2023-04-21T22:45:28.470Z,0.00
2023-04-21T22:46:28.529Z,0.00
2023-04-21T22:47:28.471Z,0.00
2023-04-21T22:48:28.402Z,0.00
2023-04-21T22:49:28.393Z,0.00
2023-04-21T22:50:28.417Z,0.00
2023-04-21T22:51:28.375Z,0.00
2023-04-21T22:52:28.366Z,0.00
2023-04-21T22:53:28.350Z,0.00
2023-04-21T22:54:28.338Z,0.00
2023-04-21T22:55:28.367Z,0.00
2023-04-21T22:56:28.314Z,0.00
2023-04-21T22:57:28.302Z,0.00
2023-04-21T22:58:28.293Z,0.00
2023-04-21T22:59:28.283Z,0.00
2023-04-21T23:00:28.350Z,0.00
2023-04-21T23:01:28.436Z,0.00
2023-04-21T23:02:28.387Z,0.00
2023-04-21T23:03:28.526Z,0.00
2023-04-21T23:04:28.221Z,0.00
2023-04-21T23:05:28.232Z,0.00
2023-04-21T23:06:28.199Z,0.00
2023-04-21T23:07:28.223Z,0.00
2023-04-21T23:08:28.189Z,0.00
2023-04-21T23:09:28.206Z,0.00
2023-04-21T23:10:28.167Z,0.00
2023-04-21T23:11:28.144Z,0.00
2023-04-21T23:12:28.137Z,0.00
2023-04-21T23:13:28.123Z,0.00
2023-04-21T23:14:28.133Z,0.00
2023-04-21T23:15:28.110Z,0.00
2023-04-21T23:16:28.161Z,0.00
2023-04-21T23:17:28.177Z,0.00
2023-04-21T23:18:28.065Z,0.00
2023-04-21T23:19:28.063Z,0.00
2023-04-21T23:20:28.080Z,0.00
2023-04-21T23:21:28.034Z,0.00
2023-04-21T23:22:28.019Z,0.00
2023-04-21T23:23:28.011Z,0.00
2023-04-21T23:24:28.016Z,0.00
2023-04-21T23:25:28.014Z,0.00
2023-04-21T23:26:27.972Z,0.00
2023-04-21T23:27:27.967Z,0.00
2023-04-21T23:28:27.952Z,0.00
2023-04-21T23:29:27.947Z,0.00
2023-04-21T23:30:27.940Z,0.00
2023-04-21T23:31:27.992Z,0.00
2023-04-21T23:32:27.953Z,0.00
2023-04-21T23:33:27.929Z,0.00
2023-04-21T23:34:27.895Z,0.00
2023-04-21T23:35:27.889Z,0.00
2023-04-21T23:36:27.859Z,0.00
2023-04-21T23:37:27.856Z,0.00
2023-04-21T23:38:27.857Z,0.00
2023-04-21T23:39:27.831Z,0.00
2023-04-21T23:40:27.833Z,0.00
2023-04-21T23:41:27.824Z,0.00
2023-04-21T23:42:27.797Z,0.00
2023-04-21T23:43:27.779Z,0.00
2023-04-21T23:44:27.783Z,0.00
2023-04-21T23:45:27.799Z,0.00
2023-04-21T23:46:27.908Z,0.00
2023-04-21T23:47:27.776Z,0.00
2023-04-21T23:48:27.723Z,0.00
2023-04-21T23:49:27.733Z,0.00
2023-04-21T23:50:27.717Z,0.00
2023-04-21T23:51:27.770Z,0.00
2023-04-21T23:52:27.688Z,0.00
2023-04-21T23:53:27.674Z,0.00
2023-04-21T23:54:27.654Z,0.00
2023-04-21T23:55:27.661Z,0.00
2023-04-21T23:56:27.632Z,0.00
2023-04-21T23:57:27.628Z,0.00
2023-04-21T23:58:27.616Z,0.00
2023-04-21T23:59:27.601Z,0.00
